createdAt,value
2022-10-26T00:05:14.253Z,96.87
2022-10-26T00:15:18.243Z,92.80
2022-10-26T00:25:22.885Z,94.00
2022-10-26T00:35:41.401Z,94.00
2022-10-26T00:45:53.087Z,91.93
2022-10-26T00:55:57.866Z,94.63
2022-10-26T01:06:05.145Z,93.80
2022-10-26T01:16:27.420Z,91.63
2022-10-26T01:26:55.855Z,93.30
2022-10-26T01:37:08.841Z,93.00
2022-10-26T01:47:15.883Z,91.03
2022-10-26T01:57:22.619Z,88.67
2022-10-26T02:07:35.068Z,87.93
2022-10-26T02:17:51.961Z,91.00
2022-10-26T02:28:00.440Z,86.27
2022-10-26T02:38:09.314Z,85.70
2022-10-26T02:48:12.597Z,85.97
2022-10-26T02:58:23.866Z,86.63
2022-10-26T03:18:36.773Z,86.37
2022-10-26T03:28:39.986Z,85.37
2022-10-26T03:38:44.588Z,87.40
2022-10-26T03:48:47.798Z,84.07
2022-10-26T03:58:52.408Z,83.10
2022-10-26T04:08:58.860Z,83.33
2022-10-26T04:19:03.498Z,87.53
2022-10-26T04:29:07.690Z,86.37
2022-10-26T04:39:12.367Z,84.53
2022-10-26T04:49:15.655Z,84.53
2022-10-26T04:59:20.254Z,87.43
2022-10-26T05:09:23.469Z,84.87
2022-10-26T05:19:28.154Z,90.00
2022-10-26T05:29:31.418Z,83.57
2022-10-26T05:39:36.000Z,84.60
2022-10-26T05:49:39.411Z,89.03
2022-10-26T05:59:44.758Z,91.03
2022-10-26T06:09:49.840Z,85.87
2022-10-26T06:20:10.655Z,86.43
2022-10-26T06:30:14.342Z,92.03
2022-10-26T06:40:20.466Z,95.73
2022-10-26T06:50:38.772Z,91.73
2022-10-26T07:00:45.400Z,91.67
2022-10-26T07:10:48.962Z,90.27
2022-10-26T07:20:53.548Z,95.33
2022-10-26T07:30:59.481Z,95.80
2022-10-26T07:41:05.376Z,100.23
2022-10-26T07:51:08.851Z,101.10
2022-10-26T08:01:15.919Z,106.55
2022-10-26T08:11:19.539Z,108.20
2022-10-26T08:21:36.189Z,109.82
2022-10-26T08:31:42.969Z,114.55
2022-10-26T08:41:53.539Z,117.18
2022-10-26T08:52:00.338Z,117.38
2022-10-26T09:02:12.399Z,120.85
2022-10-26T09:12:26.759Z,119.65
2022-10-26T09:22:39.316Z,123.63
2022-10-26T09:32:47.565Z,126.18
2022-10-26T09:42:59.787Z,131.55
2022-10-26T09:53:03.193Z,128.07
2022-10-26T10:03:21.096Z,137.90
2022-10-26T10:13:27.181Z,130.95
2022-10-26T10:23:34.665Z,129.45
2022-10-26T10:33:41.333Z,133.27
2022-10-26T10:43:49.069Z,131.85
2022-10-26T10:53:55.372Z,134.98
2022-10-26T11:04:30.474Z,133.25
2022-10-26T11:14:39.378Z,139.05
2022-10-26T11:24:50.481Z,135.50
2022-10-26T11:35:00.473Z,132.90
2022-10-26T11:45:14.674Z,136.70
2022-10-26T11:55:19.829Z,135.02
2022-10-26T12:05:33.883Z,131.90
2022-10-26T12:16:03.597Z,135.07
2022-10-26T12:26:53.734Z,134.70
2022-10-26T12:37:24.513Z,131.98
2022-10-26T12:48:10.632Z,132.32
2022-10-26T12:59:10.433Z,131.50
2022-10-26T13:09:21.930Z,131.52
2022-10-26T13:19:28.462Z,132.75
2022-10-26T13:29:34.316Z,130.73
2022-10-26T13:39:40.650Z,131.30
2022-10-26T13:49:48.649Z,128.88
2022-10-26T13:59:53.382Z,170.07
2022-10-26T14:09:59.475Z,165.40
2022-10-26T14:20:04.260Z,125.95
2022-10-26T14:30:24.254Z,119.15
2022-10-26T14:40:31.814Z,110.63
2022-10-26T14:50:36.621Z,106.88
2022-10-26T15:00:40.455Z,104.28
2022-10-26T15:10:49.761Z,101.10
2022-10-26T15:20:54.047Z,95.50
2022-10-26T15:31:04.558Z,111.70
2022-10-26T15:41:17.316Z,108.87
2022-10-26T15:51:22.411Z,104.70
2022-10-26T16:01:29.436Z,97.27
2022-10-26T16:11:34.895Z,92.77
2022-10-26T16:21:38.187Z,88.40
2022-10-26T16:31:42.817Z,86.67
2022-10-26T16:41:46.034Z,83.50
2022-10-26T16:51:52.600Z,82.23
2022-10-26T17:01:55.994Z,83.17
2022-10-26T17:12:02.086Z,85.17
2022-10-26T17:22:08.038Z,86.13
2022-10-26T17:32:15.196Z,87.73
2022-10-26T17:42:18.835Z,89.27
2022-10-26T17:52:24.782Z,96.90
2022-10-26T18:02:28.392Z,101.93
2022-10-26T18:12:33.577Z,88.67
2022-10-26T18:22:36.850Z,89.30
2022-10-26T18:32:41.475Z,91.40
2022-10-26T18:42:44.723Z,94.47
2022-10-26T18:52:49.414Z,89.37
2022-10-26T19:02:52.888Z,99.27
2022-10-26T19:12:57.818Z,97.20
2022-10-26T19:23:01.112Z,100.37
2022-10-26T19:33:05.841Z,104.20
2022-10-26T19:43:09.115Z,91.80
2022-10-26T19:53:17.338Z,88.83
2022-10-26T20:03:20.942Z,91.70
2022-10-26T20:13:25.838Z,88.43
2022-10-26T20:23:29.060Z,91.90
2022-10-26T20:33:33.640Z,92.77
2022-10-26T20:43:40.049Z,98.07
2022-10-26T20:53:53.319Z,120.53
2022-10-26T21:03:59.716Z,105.10
2022-10-26T21:14:05.487Z,100.37
2022-10-26T21:24:09.360Z,100.90
2022-10-26T21:34:14.112Z,89.07
2022-10-26T21:44:39.855Z,95.97
2022-10-26T21:54:42.079Z,91.27
2022-10-26T22:04:45.345Z,92.33
2022-10-26T22:14:49.994Z,95.73
2022-10-26T22:24:53.336Z,91.40
2022-10-26T22:35:10.748Z,100.93
2022-10-26T22:45:20.898Z,90.73
2022-10-26T22:55:25.609Z,93.13
2022-10-26T23:05:28.946Z,93.10
2022-10-26T23:15:33.654Z,90.13
2022-10-26T23:25:36.970Z,94.60
2022-10-26T23:35:42.677Z,95.23
2022-10-26T23:45:45.973Z,90.63
2022-10-26T23:55:50.915Z,90.80
